sensor_id;sensor_type;location;lat;lon;timestamp;pressure;altitude;pressure_sealevel;temperature;humidity
4576;BME280;2300;51.874;8.430;2022-10-15T00:02:18;99936.63;;;12.57;100.00
4576;BME280;2300;51.874;8.430;2022-10-15T00:04:45;99901.72;;;12.31;100.00
4576;BME280;2300;51.874;8.430;2022-10-15T00:07:12;99919.94;;;12.37;100.00
4576;BME280;2300;51.874;8.430;2022-10-15T00:09:40;99936.00;;;12.50;100.00
4576;BME280;2300;51.874;8.430;2022-10-15T00:12:07;99935.97;;;12.45;100.00
4576;BME280;2300;51.874;8.430;2022-10-15T00:14:33;99932.16;;;12.51;100.00
4576;BME280;2300;51.874;8.430;2022-10-15T00:17:00;99928.78;;;12.44;100.00
4576;BME280;2300;51.874;8.430;2022-10-15T00:19:26;99929.63;;;12.44;100.00
4576;BME280;2300;51.874;8.430;2022-10-15T00:21:54;99928.25;;;12.42;100.00
4576;BME280;2300;51.874;8.430;2022-10-15T00:24:21;99923.19;;;12.34;100.00
4576;BME280;2300;51.874;8.430;2022-10-15T00:26:48;99909.09;;;12.25;100.00
4576;BME280;2300;51.874;8.430;2022-10-15T00:29:15;99907.44;;;12.24;100.00
4576;BME280;2300;51.874;8.430;2022-10-15T00:31:42;99934.25;;;12.39;100.00
4576;BME280;2300;51.874;8.430;2022-10-15T00:34:08;99929.31;;;12.41;100.00
4576;BME280;2300;51.874;8.430;2022-10-15T00:36:36;99932.00;;;12.31;100.00
4576;BME280;2300;51.874;8.430;2022-10-15T00:39:05;99913.47;;;12.21;100.00
4576;BME280;2300;51.874;8.430;2022-10-15T00:41:35;99931.44;;;12.34;100.00
4576;BME280;2300;51.874;8.430;2022-10-15T00:47:11;99928.41;;;12.30;100.00
4576;BME280;2300;51.874;8.430;2022-10-15T00:49:42;99932.56;;;12.33;100.00
4576;BME280;2300;51.874;8.430;2022-10-15T00:52:11;99931.44;;;12.34;100.00
4576;BME280;2300;51.874;8.430;2022-10-15T00:54:42;99927.06;;;12.33;100.00
4576;BME280;2300;51.874;8.430;2022-10-15T00:57:10;99901.63;;;12.21;100.00
4576;BME280;2300;51.874;8.430;2022-10-15T00:59:40;99912.09;;;12.24;100.00
4576;BME280;2300;51.874;8.430;2022-10-15T01:02:10;99904.91;;;12.18;100.00
4576;BME280;2300;51.874;8.430;2022-10-15T01:04:38;99912.09;;;12.24;100.00
4576;BME280;2300;51.874;8.430;2022-10-15T01:07:06;99910.13;;;12.19;100.00
4576;BME280;2300;51.874;8.430;2022-10-15T01:09:33;99914.81;;;12.19;100.00
4576;BME280;2300;51.874;8.430;2022-10-15T01:12:01;99923.94;;;12.24;100.00
4576;BME280;2300;51.874;8.430;2022-10-15T01:14:35;99914.31;;;12.22;100.00
4576;BME280;2300;51.874;8.430;2022-10-15T01:17:13;99908.16;;;12.15;100.00
4576;BME280;2300;51.874;8.430;2022-10-15T01:20:05;99909.22;;;12.08;100.00
4576;BME280;2300;51.874;8.430;2022-10-15T01:22:51;99886.81;;;11.95;100.00
4576;BME280;2300;51.874;8.430;2022-10-15T01:25:29;99907.50;;;12.02;100.00
4576;BME280;2300;51.874;8.430;2022-10-15T01:28:06;99896.16;;;11.94;100.00
4576;BME280;2300;51.874;8.430;2022-10-15T01:30:44;99905.53;;;11.98;100.00
4576;BME280;2300;51.874;8.430;2022-10-15T01:33:23;99900.81;;;11.93;100.00
4576;BME280;2300;51.874;8.430;2022-10-15T01:35:53;99886.13;;;11.83;100.00
4576;BME280;2300;51.874;8.430;2022-10-15T01:38:37;99913.38;;;11.84;100.00
4576;BME280;2300;51.874;8.430;2022-10-15T01:41:09;99905.06;;;11.79;100.00
4576;BME280;2300;51.874;8.430;2022-10-15T01:43:43;99859.31;;;11.46;100.00
4576;BME280;2300;51.874;8.430;2022-10-15T01:46:17;99906.06;;;11.68;100.00
4576;BME280;2300;51.874;8.430;2022-10-15T01:48:44;99909.94;;;11.72;100.00
4576;BME280;2300;51.874;8.430;2022-10-15T01:51:12;99909.44;;;11.75;100.00
4576;BME280;2300;51.874;8.430;2022-10-15T01:53:41;99907.78;;;11.74;100.00
4576;BME280;2300;51.874;8.430;2022-10-15T01:56:13;99895.94;;;11.74;100.00
4576;BME280;2300;51.874;8.430;2022-10-15T01:58:42;99909.25;;;11.87;100.00
4576;BME280;2300;51.874;8.430;2022-10-15T02:01:09;99904.66;;;11.92;100.00
4576;BME280;2300;51.874;8.430;2022-10-15T02:03:45;99906.84;;;11.90;100.00
4576;BME280;2300;51.874;8.430;2022-10-15T02:06:17;99910.78;;;11.99;100.00
4576;BME280;2300;51.874;8.430;2022-10-15T02:08:55;99891.47;;;11.94;100.00
4576;BME280;2300;51.874;8.430;2022-10-15T02:11:23;99903.72;;;12.08;100.00
4576;BME280;2300;51.874;8.430;2022-10-15T02:13:54;99892.94;;;12.02;100.00
4576;BME280;2300;51.874;8.430;2022-10-15T02:16:27;99901.53;;;12.10;100.00
4576;BME280;2300;51.874;8.430;2022-10-15T02:18:59;99903.22;;;12.11;100.00
4576;BME280;2300;51.874;8.430;2022-10-15T02:21:31;99906.50;;;12.13;100.00
4576;BME280;2300;51.874;8.430;2022-10-15T02:24:05;99904.63;;;12.19;100.00
4576;BME280;2300;51.874;8.430;2022-10-15T02:26:34;99900.00;;;12.25;100.00
4576;BME280;2300;51.874;8.430;2022-10-15T02:29:04;99898.34;;;12.24;100.00
4576;BME280;2300;51.874;8.430;2022-10-15T02:31:34;99892.88;;;12.29;100.00
4576;BME280;2300;51.874;8.430;2022-10-15T02:34:05;99890.16;;;12.34;100.00
4576;BME280;2300;51.874;8.430;2022-10-15T02:36:33;99865.28;;;12.19;100.00
4576;BME280;2300;51.874;8.430;2022-10-15T02:39:02;99882.19;;;12.32;100.00
4576;BME280;2300;51.874;8.430;2022-10-15T02:41:33;99874.16;;;12.26;100.00
4576;BME280;2300;51.874;8.430;2022-10-15T02:44:01;99865.66;;;12.32;100.00
4576;BME280;2300;51.874;8.430;2022-10-15T02:46:28;99880.59;;;12.41;100.00
4576;BME280;2300;51.874;8.430;2022-10-15T02:48:55;99879.78;;;12.41;100.00
4576;BME280;2300;51.874;8.430;2022-10-15T02:51:23;99884.44;;;12.40;100.00
4576;BME280;2300;51.874;8.430;2022-10-15T02:53:50;99883.94;;;12.43;100.00
4576;BME280;2300;51.874;8.430;2022-10-15T02:56:18;99884.72;;;12.44;100.00
4576;BME280;2300;51.874;8.430;2022-10-15T02:58:44;99880.59;;;12.41;100.00
4576;BME280;2300;51.874;8.430;2022-10-15T03:01:11;99872.59;;;12.40;100.00
4576;BME280;2300;51.874;8.430;2022-10-15T03:03:38;99885.28;;;12.41;100.00
4576;BME280;2300;51.874;8.430;2022-10-15T03:06:05;99885.25;;;12.36;100.00
4576;BME280;2300;51.874;8.430;2022-10-15T03:08:33;99879.22;;;12.44;100.00
4576;BME280;2300;51.874;8.430;2022-10-15T03:11:00;99886.38;;;12.40;100.00
4576;BME280;2300;51.874;8.430;2022-10-15T03:13:28;99894.13;;;12.43;100.00
4576;BME280;2300;51.874;8.430;2022-10-15T03:15:55;99876.69;;;12.32;100.00
4576;BME280;2300;51.874;8.430;2022-10-15T03:18:22;99885.53;;;12.39;100.00
4576;BME280;2300;51.874;8.430;2022-10-15T03:20:52;99885.56;;;12.44;100.00
4576;BME280;2300;51.874;8.430;2022-10-15T03:23:19;99894.69;;;12.50;100.00
4576;BME280;2300;51.874;8.430;2022-10-15T03:25:47;99815.63;;;12.03;100.00
4576;BME280;2300;51.874;8.430;2022-10-15T03:28:14;99901.38;;;12.54;100.00
4576;BME280;2300;51.874;8.430;2022-10-15T03:30:44;99893.13;;;12.59;100.00
4576;BME280;2300;51.874;8.430;2022-10-15T03:33:11;99890.41;;;12.64;100.00
4576;BME280;2300;51.874;8.430;2022-10-15T03:35:38;99898.69;;;12.64;100.00
4576;BME280;2300;51.874;8.430;2022-10-15T03:38:06;99892.06;;;12.65;100.00
4576;BME280;2300;51.874;8.430;2022-10-15T03:40:33;99872.75;;;12.60;100.00
4576;BME280;2300;51.874;8.430;2022-10-15T03:43:01;99882.75;;;12.76;100.00
4576;BME280;2300;51.874;8.430;2022-10-15T03:45:28;99904.44;;;12.63;100.00
4576;BME280;2300;51.874;8.430;2022-10-15T03:47:54;99852.78;;;12.38;100.00
4576;BME280;2300;51.874;8.430;2022-10-15T03:50:22;99893.72;;;12.66;100.00
4576;BME280;2300;51.874;8.430;2022-10-15T03:52:49;99893.16;;;12.64;100.00
4576;BME280;2300;51.874;8.430;2022-10-15T03:55:15;99870.94;;;12.39;100.00
4576;BME280;2300;51.874;8.430;2022-10-15T03:57:44;99896.16;;;12.58;100.00
4576;BME280;2300;51.874;8.430;2022-10-15T04:00:13;99877.19;;;12.66;100.00
4576;BME280;2300;51.874;8.430;2022-10-15T04:02:40;99885.50;;;12.71;100.00
4576;BME280;2300;51.874;8.430;2022-10-15T04:05:07;99879.41;;;12.64;100.00
4576;BME280;2300;51.874;8.430;2022-10-15T04:07:34;99872.50;;;12.67;100.00
4576;BME280;2300;51.874;8.430;2022-10-15T04:10:01;99892.94;;;12.76;100.00
4576;BME280;2300;51.874;8.430;2022-10-15T04:12:29;99894.63;;;12.77;100.00
4576;BME280;2300;51.874;8.430;2022-10-15T04:14:55;99892.19;;;12.85;100.00
4576;BME280;2300;51.874;8.430;2022-10-15T04:17:25;99889.41;;;12.80;100.00
4576;BME280;2300;51.874;8.430;2022-10-15T04:19:52;99890.59;;;12.89;100.00
4576;BME280;2300;51.874;8.430;2022-10-15T04:22:18;99888.38;;;12.86;100.00
4576;BME280;2300;51.874;8.430;2022-10-15T04:24:45;99879.00;;;12.87;100.00
4576;BME280;2300;51.874;8.430;2022-10-15T04:27:12;99889.72;;;12.84;100.00
4576;BME280;2300;51.874;8.430;2022-10-15T04:29:39;99894.75;;;12.92;100.00
4576;BME280;2300;51.874;8.430;2022-10-15T04:32:05;99898.59;;;12.96;100.00
4576;BME280;2300;51.874;8.430;2022-10-15T04:34:33;99836.69;;;12.62;100.00
4576;BME280;2300;51.874;8.430;2022-10-15T04:37:00;99893.41;;;13.00;100.00
4576;BME280;2300;51.874;8.430;2022-10-15T04:39:27;99876.84;;;12.94;100.00
4576;BME280;2300;51.874;8.430;2022-10-15T04:41:54;99890.69;;;13.05;100.00
4576;BME280;2300;51.874;8.430;2022-10-15T04:44:20;99873.56;;;12.98;100.00
4576;BME280;2300;51.874;8.430;2022-10-15T04:46:47;99891.78;;;13.04;100.00
4576;BME280;2300;51.874;8.430;2022-10-15T04:49:13;99895.34;;;12.99;100.00
4576;BME280;2300;51.874;8.430;2022-10-15T04:51:41;99891.75;;;12.99;100.00
4576;BME280;2300;51.874;8.430;2022-10-15T04:54:08;99877.84;;;12.83;100.00
4576;BME280;2300;51.874;8.430;2022-10-15T04:56:34;99892.34;;;13.06;100.00
4576;BME280;2300;51.874;8.430;2022-10-15T04:59:05;99873.53;;;12.92;100.00
4576;BME280;2300;51.874;8.430;2022-10-15T05:01:32;99846.91;;;12.66;100.00
4576;BME280;2300;51.874;8.430;2022-10-15T05:03:59;99886.25;;;12.99;100.00
4576;BME280;2300;51.874;8.430;2022-10-15T05:06:26;99881.69;;;12.82;100.00
4576;BME280;2300;51.874;8.430;2022-10-15T05:08:54;99894.47;;;12.93;100.00
4576;BME280;2300;51.874;8.430;2022-10-15T05:11:22;99896.47;;;13.03;100.00
4576;BME280;2300;51.874;8.430;2022-10-15T05:13:49;99900.59;;;13.01;100.00
4576;BME280;2300;51.874;8.430;2022-10-15T05:16:21;99898.38;;;13.03;100.00
4576;BME280;2300;51.874;8.430;2022-10-15T05:18:49;99847.97;;;12.65;100.00
4576;BME280;2300;51.874;8.430;2022-10-15T05:21:16;99900.53;;;12.95;100.00
4576;BME280;2300;51.874;8.430;2022-10-15T05:23:44;99907.75;;;13.07;100.00
4576;BME280;2300;51.874;8.430;2022-10-15T05:26:14;99898.38;;;13.03;100.00
4576;BME280;2300;51.874;8.430;2022-10-15T05:28:41;99900.59;;;13.01;100.00
4576;BME280;2300;51.874;8.430;2022-10-15T05:31:10;99900.63;;;13.06;100.00
4576;BME280;2300;51.874;8.430;2022-10-15T05:33:38;99895.59;;;12.98;100.00
4576;BME280;2300;51.874;8.430;2022-10-15T05:36:10;99903.88;;;13.03;100.00
4576;BME280;2300;51.874;8.430;2022-10-15T05:38:36;99895.59;;;12.98;100.00
4576;BME280;2300;51.874;8.430;2022-10-15T05:41:03;99888.41;;;12.96;100.00
4576;BME280;2300;51.874;8.430;2022-10-15T05:43:32;99919.94;;;13.11;100.00
4576;BME280;2300;51.874;8.430;2022-10-15T05:46:00;99913.56;;;13.05;100.00
4576;BME280;2300;51.874;8.430;2022-10-15T05:48:27;99911.97;;;13.19;100.00
4576;BME280;2300;51.874;8.430;2022-10-15T05:50:59;99915.84;;;13.23;100.00
4576;BME280;2300;51.874;8.430;2022-10-15T05:53:26;99900.59;;;13.01;100.00
4576;BME280;2300;51.874;8.430;2022-10-15T05:55:55;99902.81;;;13.04;100.00
4576;BME280;2300;51.874;8.430;2022-10-15T05:58:23;99902.31;;;13.17;100.00
4576;BME280;2300;51.874;8.430;2022-10-15T06:00:53;99896.78;;;13.17;100.00
4576;BME280;2300;51.874;8.430;2022-10-15T06:03:20;99898.44;;;13.13;100.00
4576;BME280;2300;51.874;8.430;2022-10-15T06:05:47;99903.47;;;13.26;100.00
4576;BME280;2300;51.874;8.430;2022-10-15T06:08:13;99903.50;;;13.31;100.00
4576;BME280;2300;51.874;8.430;2022-10-15T06:10:41;99912.84;;;13.30;100.00
4576;BME280;2300;51.874;8.430;2022-10-15T06:13:08;99912.88;;;13.35;100.00
4576;BME280;2300;51.874;8.430;2022-10-15T06:15:37;99909.84;;;13.31;100.00
4576;BME280;2300;51.874;8.430;2022-10-15T06:18:06;99914.81;;;13.39;100.00
4576;BME280;2300;51.874;8.430;2022-10-15T06:20:33;99914.00;;;13.39;100.00
4576;BME280;2300;51.874;8.430;2022-10-15T06:23:00;99922.00;;;13.41;100.00
4576;BME280;2300;51.874;8.430;2022-10-15T06:25:27;99899.34;;;13.28;100.00
4576;BME280;2300;51.874;8.430;2022-10-15T06:27:54;99929.50;;;13.50;100.00
4576;BME280;2300;51.874;8.430;2022-10-15T06:30:21;99930.06;;;13.52;100.00
4576;BME280;2300;51.874;8.430;2022-10-15T06:32:47;99934.44;;;13.48;100.00
4576;BME280;2300;51.874;8.430;2022-10-15T06:35:16;99928.94;;;13.53;100.00
4576;BME280;2300;51.874;8.430;2022-10-15T06:37:43;99937.81;;;13.60;100.00
4576;BME280;2300;51.874;8.430;2022-10-15T06:40:11;99899.69;;;13.42;100.00
4576;BME280;2300;51.874;8.430;2022-10-15T06:42:38;99931.72;;;13.63;100.00
4576;BME280;2300;51.874;8.430;2022-10-15T06:45:05;99934.50;;;13.68;100.00
4576;BME280;2300;51.874;8.430;2022-10-15T06:47:33;99941.69;;;13.69;100.00
4576;BME280;2300;51.874;8.430;2022-10-15T06:49:59;99938.41;;;13.77;100.00
4576;BME280;2300;51.874;8.430;2022-10-15T06:52:28;99945.63;;;13.84;100.00
4576;BME280;2300;51.874;8.430;2022-10-15T06:54:55;99947.81;;;13.81;100.00
4576;BME280;2300;51.874;8.430;2022-10-15T06:57:21;99950.00;;;13.85;100.00
4576;BME280;2300;51.874;8.430;2022-10-15T06:59:49;99955.03;;;13.98;100.00
4576;BME280;2300;51.874;8.430;2022-10-15T07:02:16;99955.00;;;13.88;100.00
4576;BME280;2300;51.874;8.430;2022-10-15T07:04:43;99956.38;;;13.95;100.00
4576;BME280;2300;51.874;8.430;2022-10-15T07:07:10;99946.72;;;13.88;100.00
4576;BME280;2300;51.874;8.430;2022-10-15T07:09:38;99951.75;;;14.06;100.00
4576;BME280;2300;51.874;8.430;2022-10-15T07:12:05;99962.25;;;14.09;100.00
4576;BME280;2300;51.874;8.430;2022-10-15T07:14:32;99951.16;;;13.99;100.00
4576;BME280;2300;51.874;8.430;2022-10-15T07:16:59;99975.50;;;14.07;100.00
4576;BME280;2300;51.874;8.430;2022-10-15T07:19:25;99978.28;;;14.22;100.00
4576;BME280;2300;51.874;8.430;2022-10-15T07:21:53;99972.22;;;14.25;100.00
4576;BME280;2300;51.874;8.430;2022-10-15T07:24:19;99979.41;;;14.26;100.00
4576;BME280;2300;51.874;8.430;2022-10-15T07:26:47;99972.78;;;14.27;100.00
4576;BME280;2300;51.874;8.430;2022-10-15T07:29:14;99977.47;;;14.32;100.00
4576;BME280;2300;51.874;8.430;2022-10-15T07:31:40;99986.06;;;14.40;100.00
4576;BME280;2300;51.874;8.430;2022-10-15T07:34:07;99980.56;;;14.45;100.00
4576;BME280;2300;51.874;8.430;2022-10-15T07:36:34;99964.25;;;14.39;100.00
4576;BME280;2300;51.874;8.430;2022-10-15T07:39:01;99958.44;;;14.30;100.00
4576;BME280;2300;51.874;8.430;2022-10-15T07:41:29;99987.16;;;14.44;100.00
4576;BME280;2300;51.874;8.430;2022-10-15T07:43:58;99988.84;;;14.50;100.00
4576;BME280;2300;51.874;8.430;2022-10-15T07:46:25;99998.75;;;14.61;100.00
4576;BME280;2300;51.874;8.430;2022-10-15T07:48:52;99998.75;;;14.66;100.00
4576;BME280;2300;51.874;8.430;2022-10-15T07:51:18;99999.34;;;14.69;100.00
4576;BME280;2300;51.874;8.430;2022-10-15T07:53:45;99987.75;;;14.72;100.00
4576;BME280;2300;51.874;8.430;2022-10-15T07:56:16;99990.47;;;14.46;100.00
4576;BME280;2300;51.874;8.430;2022-10-15T07:58:43;99969.19;;;14.47;100.00
4576;BME280;2300;51.874;8.430;2022-10-15T08:01:18;99978.63;;;14.66;100.00
4576;BME280;2300;51.874;8.430;2022-10-15T08:03:45;99972.25;;;14.76;100.00
4576;BME280;2300;51.874;8.430;2022-10-15T08:06:12;99965.34;;;14.78;100.00
4576;BME280;2300;51.874;8.430;2022-10-15T08:08:39;99948.50;;;14.75;100.00
4576;BME280;2300;51.874;8.430;2022-10-15T08:11:07;99976.94;;;14.85;100.00
4576;BME280;2300;51.874;8.430;2022-10-15T08:13:34;99962.84;;;14.97;100.00
4576;BME280;2300;51.874;8.430;2022-10-15T08:16:01;99955.09;;;14.89;100.00
4576;BME280;2300;51.874;8.430;2022-10-15T08:18:29;99957.31;;;14.97;100.00
4576;BME280;2300;51.874;8.430;2022-10-15T08:20:58;99966.72;;;14.96;100.00
4576;BME280;2300;51.874;8.430;2022-10-15T08:23:25;99965.31;;;15.14;100.00
4576;BME280;2300;51.874;8.430;2022-10-15T08:25:51;99972.78;;;15.18;100.00
4576;BME280;2300;51.874;8.430;2022-10-15T08:28:18;99925.25;;;14.91;100.00
4576;BME280;2300;51.874;8.430;2022-10-15T08:30:45;99934.09;;;15.13;100.00
4576;BME280;2300;51.874;8.430;2022-10-15T08:33:11;99952.31;;;15.19;100.00
4576;BME280;2300;51.874;8.430;2022-10-15T08:35:41;99947.91;;;15.23;100.00
4576;BME280;2300;51.874;8.430;2022-10-15T08:38:08;99951.50;;;15.14;100.00
4576;BME280;2300;51.874;8.430;2022-10-15T08:40:35;99918.63;;;14.97;100.00
4576;BME280;2300;51.874;8.430;2022-10-15T08:43:03;99950.94;;;15.17;100.00
4576;BME280;2300;51.874;8.430;2022-10-15T08:45:34;99918.03;;;15.20;100.00
4576;BME280;2300;51.874;8.430;2022-10-15T08:48:07;99943.91;;;15.60;100.00
4576;BME280;2300;51.874;8.430;2022-10-15T08:50:42;99952.59;;;15.87;100.00
4576;BME280;2300;51.874;8.430;2022-10-15T08:53:12;99953.31;;;16.08;100.00
4576;BME280;2300;51.874;8.430;2022-10-15T08:55:42;99950.25;;;16.14;99.64
4576;BME280;2300;51.874;8.430;2022-10-15T08:58:14;99923.72;;;16.03;98.02
4576;BME280;2300;51.874;8.430;2022-10-15T09:00:45;99953.69;;;16.40;97.85
4576;BME280;2300;51.874;8.430;2022-10-15T09:03:25;99940.53;;;16.56;97.05
4576;BME280;2300;51.874;8.430;2022-10-15T09:06:02;99946.41;;;16.83;94.87
4576;BME280;2300;51.874;8.430;2022-10-15T09:08:37;99949.13;;;16.88;93.77
4576;BME280;2300;51.874;8.430;2022-10-15T09:11:13;99933.72;;;17.06;93.63
4576;BME280;2300;51.874;8.430;2022-10-15T09:13:44;99917.94;;;17.01;91.91
4576;BME280;2300;51.874;8.430;2022-10-15T09:16:14;99944.47;;;17.36;90.42
4576;BME280;2300;51.874;8.430;2022-10-15T09:18:44;99943.44;;;17.56;91.00
4576;BME280;2300;51.874;8.430;2022-10-15T09:21:13;99941.56;;;17.70;89.52
4576;BME280;2300;51.874;8.430;2022-10-15T09:23:41;99918.09;;;17.39;87.21
4576;BME280;2300;51.874;8.430;2022-10-15T09:26:19;99937.59;;;17.34;85.56
4576;BME280;2300;51.874;8.430;2022-10-15T09:28:52;99931.88;;;17.25;86.05
4576;BME280;2300;51.874;8.430;2022-10-15T09:31:24;99940.34;;;17.57;86.11
4576;BME280;2300;51.874;8.430;2022-10-15T09:33:58;99932.78;;;17.63;84.96
4576;BME280;2300;51.874;8.430;2022-10-15T09:36:35;99946.44;;;17.78;85.21
4576;BME280;2300;51.874;8.430;2022-10-15T09:39:12;99937.84;;;17.80;85.35
4576;BME280;2300;51.874;8.430;2022-10-15T09:41:49;99946.56;;;17.92;84.43
4576;BME280;2300;51.874;8.430;2022-10-15T09:44:22;99911.72;;;17.38;84.57
4576;BME280;2300;51.874;8.430;2022-10-15T09:46:50;99931.53;;;17.74;83.70
4576;BME280;2300;51.874;8.430;2022-10-15T09:49:25;99956.06;;;18.10;82.75
4576;BME280;2300;51.874;8.430;2022-10-15T09:52:00;99952.69;;;18.13;83.06
4576;BME280;2300;51.874;8.430;2022-10-15T09:54:36;99954.13;;;17.86;84.00
4576;BME280;2300;51.874;8.430;2022-10-15T09:57:09;99915.44;;;17.29;84.22
4576;BME280;2300;51.874;8.430;2022-10-15T09:59:37;99945.78;;;17.44;84.26
4576;BME280;2300;51.874;8.430;2022-10-15T10:02:16;99910.31;;;17.17;84.63
4576;BME280;2300;51.874;8.430;2022-10-15T10:04:43;99927.03;;;17.36;85.04
4576;BME280;2300;51.874;8.430;2022-10-15T10:07:28;99939.22;;;17.82;84.11
4576;BME280;2300;51.874;8.430;2022-10-15T10:09:56;99920.91;;;17.57;81.42
4576;BME280;2300;51.874;8.430;2022-10-15T10:12:27;99957.38;;;17.51;81.57
4576;BME280;2300;51.874;8.430;2022-10-15T10:14:55;99941.59;;;17.23;82.34
4576;BME280;2300;51.874;8.430;2022-10-15T10:17:24;99947.84;;;17.33;82.82
4576;BME280;2300;51.874;8.430;2022-10-15T10:20:12;99900.72;;;16.75;84.26
4576;BME280;2300;51.874;8.430;2022-10-15T10:22:46;99955.75;;;17.21;84.13
4576;BME280;2300;51.874;8.430;2022-10-15T10:25:31;99955.63;;;17.31;83.91
4576;BME280;2300;51.874;8.430;2022-10-15T10:28:04;99956.75;;;17.54;83.92
4576;BME280;2300;51.874;8.430;2022-10-15T10:30:33;99966.84;;;17.92;83.06
4576;BME280;2300;51.874;8.430;2022-10-15T10:33:01;99955.47;;;18.13;83.02
4576;BME280;2300;51.874;8.430;2022-10-15T10:35:34;99944.81;;;18.38;83.09
4576;BME280;2300;51.874;8.430;2022-10-15T10:38:18;99937.38;;;18.66;80.58
4576;BME280;2300;51.874;8.430;2022-10-15T10:40:49;99934.69;;;18.61;80.53
4576;BME280;2300;51.874;8.430;2022-10-15T10:43:19;99906.09;;;18.42;78.09
4576;BME280;2300;51.874;8.430;2022-10-15T10:45:55;99909.75;;;18.24;76.81
4576;BME280;2300;51.874;8.430;2022-10-15T10:48:24;99907.00;;;18.37;76.44
4576;BME280;2300;51.874;8.430;2022-10-15T10:51:07;99917.59;;;18.54;77.07
4576;BME280;2300;51.874;8.430;2022-10-15T10:53:39;99916.53;;;18.50;77.78
4576;BME280;2300;51.874;8.430;2022-10-15T10:56:10;99905.06;;;18.38;78.76
4576;BME280;2300;51.874;8.430;2022-10-15T10:58:38;99908.88;;;18.42;78.06
4576;BME280;2300;51.874;8.430;2022-10-15T11:01:04;99894.19;;;18.23;76.92
4576;BME280;2300;51.874;8.430;2022-10-15T11:03:34;99893.72;;;18.34;77.68
4576;BME280;2300;51.874;8.430;2022-10-15T11:09:01;99891.75;;;18.35;77.57
4576;BME280;2300;51.874;8.430;2022-10-15T11:11:34;99889.22;;;18.38;76.59
4576;BME280;2300;51.874;8.430;2022-10-15T11:14:14;99884.66;;;18.29;76.67
4576;BME280;2300;51.874;8.430;2022-10-15T11:16:49;99875.81;;;18.40;76.46
4576;BME280;2300;51.874;8.430;2022-10-15T11:19:26;99883.13;;;18.69;76.21
4576;BME280;2300;51.874;8.430;2022-10-15T11:22:09;99884.00;;;18.83;76.14
4576;BME280;2300;51.874;8.430;2022-10-15T11:24:46;99854.50;;;18.68;75.48
4576;BME280;2300;51.874;8.430;2022-10-15T11:27:29;99876.72;;;19.01;75.51
4576;BME280;2300;51.874;8.430;2022-10-15T11:30:07;99875.59;;;19.29;74.60
4576;BME280;2300;51.874;8.430;2022-10-15T11:32:49;99869.91;;;19.34;73.79
4576;BME280;2300;51.874;8.430;2022-10-15T11:35:32;99870.03;;;19.29;73.44
4576;BME280;2300;51.874;8.430;2022-10-15T11:38:07;99859.94;;;19.06;73.96
4576;BME280;2300;51.874;8.430;2022-10-15T11:40:48;99857.06;;;19.11;74.72
4576;BME280;2300;51.874;8.430;2022-10-15T11:43:44;99859.75;;;19.16;74.61
4576;BME280;2300;51.874;8.430;2022-10-15T11:46:24;99879.09;;;19.07;75.53
4576;BME280;2300;51.874;8.430;2022-10-15T11:49:03;99866.34;;;19.06;75.99
4576;BME280;2300;51.874;8.430;2022-10-15T11:51:48;99880.94;;;18.84;75.81
4576;BME280;2300;51.874;8.430;2022-10-15T11:54:27;99825.84;;;18.54;75.73
4576;BME280;2300;51.874;8.430;2022-10-15T11:56:57;99840.25;;;18.56;75.63
4576;BME280;2300;51.874;8.430;2022-10-15T11:59:36;99841.31;;;18.60;76.21
4576;BME280;2300;51.874;8.430;2022-10-15T12:02:10;99837.16;;;18.44;76.41
4576;BME280;2300;51.874;8.430;2022-10-15T12:04:41;99851.00;;;18.63;77.26
4576;BME280;2300;51.874;8.430;2022-10-15T12:07:15;99837.38;;;18.48;77.54
4576;BME280;2300;51.874;8.430;2022-10-15T12:09:46;99833.69;;;18.66;77.22
4576;BME280;2300;51.874;8.430;2022-10-15T12:12:24;99775.03;;;18.21;76.93
4576;BME280;2300;51.874;8.430;2022-10-15T12:15:06;99837.81;;;18.68;76.91
4576;BME280;2300;51.874;8.430;2022-10-15T12:17:41;99776.28;;;18.29;77.18
4576;BME280;2300;51.874;8.430;2022-10-15T12:20:14;99817.00;;;18.52;78.00
4576;BME280;2300;51.874;8.430;2022-10-15T12:22:56;99824.44;;;18.70;77.33
4576;BME280;2300;51.874;8.430;2022-10-15T12:25:44;99810.53;;;18.70;77.98
4576;BME280;2300;51.874;8.430;2022-10-15T12:28:16;99828.75;;;18.76;78.01
4576;BME280;2300;51.874;8.430;2022-10-15T12:30:56;99809.59;;;18.61;78.79
4576;BME280;2300;51.874;8.430;2022-10-15T12:33:30;99814.34;;;18.74;78.54
4576;BME280;2300;51.874;8.430;2022-10-15T12:35:59;99798.50;;;18.75;79.02
4576;BME280;2300;51.874;8.430;2022-10-15T12:38:37;99816.44;;;18.82;79.18
4576;BME280;2300;51.874;8.430;2022-10-15T12:41:07;99785.88;;;18.50;78.82
4576;BME280;2300;51.874;8.430;2022-10-15T12:43:37;99807.13;;;18.73;79.43
4576;BME280;2300;51.874;8.430;2022-10-15T12:46:08;99801.47;;;18.65;79.56
4576;BME280;2300;51.874;8.430;2022-10-15T12:48:37;99804.03;;;18.61;80.79
4576;BME280;2300;51.874;8.430;2022-10-15T12:51:37;99813.28;;;18.43;83.13
4576;BME280;2300;51.874;8.430;2022-10-15T12:54:37;99806.75;;;18.01;86.42
4576;BME280;2300;51.874;8.430;2022-10-15T13:00:30;99801.25;;;17.78;89.70
4576;BME280;2300;51.874;8.430;2022-10-15T13:03:08;99803.00;;;17.74;90.75
4576;BME280;2300;51.874;8.430;2022-10-15T13:05:36;99795.69;;;17.78;90.72
4576;BME280;2300;51.874;8.430;2022-10-15T13:08:05;99794.81;;;17.64;91.14
4576;BME280;2300;51.874;8.430;2022-10-15T13:10:39;99784.09;;;17.57;92.03
4576;BME280;2300;51.874;8.430;2022-10-15T13:13:12;99771.19;;;17.66;92.79
4576;BME280;2300;51.874;8.430;2022-10-15T13:15:49;99769.75;;;17.87;92.14
4576;BME280;2300;51.874;8.430;2022-10-15T13:18:16;99769.22;;;17.85;92.47
4576;BME280;2300;51.874;8.430;2022-10-15T13:20:44;99769.00;;;18.00;91.69
4576;BME280;2300;51.874;8.430;2022-10-15T13:23:16;99778.16;;;18.01;92.82
4576;BME280;2300;51.874;8.430;2022-10-15T13:25:43;99745.50;;;17.93;91.32
4576;BME280;2300;51.874;8.430;2022-10-15T13:28:29;99761.94;;;18.08;91.75
4576;BME280;2300;51.874;8.430;2022-10-15T13:30:58;99766.84;;;17.97;92.15
4576;BME280;2300;51.874;8.430;2022-10-15T13:33:25;99765.66;;;18.17;91.56
4576;BME280;2300;51.874;8.430;2022-10-15T13:35:52;99776.41;;;18.37;90.96
4576;BME280;2300;51.874;8.430;2022-10-15T13:38:20;99752.63;;;18.31;89.95
4576;BME280;2300;51.874;8.430;2022-10-15T13:40:50;99764.13;;;18.25;89.87
4576;BME280;2300;51.874;8.430;2022-10-15T13:43:19;99760.75;;;18.28;89.91